createdAt,value
2023-05-21T00:02:17.726Z,6.00
2023-05-21T00:04:45.574Z,6.55
2023-05-21T00:07:12.840Z,6.47
2023-05-21T00:09:39.834Z,6.75
2023-05-21T00:12:08.505Z,6.38
2023-05-21T00:14:35.573Z,6.35
2023-05-21T00:17:02.462Z,6.28
2023-05-21T00:19:29.328Z,6.70
2023-05-21T00:21:57.669Z,5.88
2023-05-21T00:24:24.507Z,6.10
2023-05-21T00:26:51.283Z,6.63
2023-05-21T00:29:18.174Z,6.72
2023-05-21T00:31:45.014Z,6.10
2023-05-21T00:34:14.168Z,6.70
2023-05-21T00:36:40.896Z,6.90
2023-05-21T00:39:08.922Z,6.53
2023-05-21T00:41:36.204Z,6.68
2023-05-21T00:44:03.117Z,6.70
2023-05-21T00:46:30.203Z,6.68
2023-05-21T00:48:58.233Z,6.68
2023-05-21T00:51:25.921Z,6.57
2023-05-21T00:53:54.466Z,6.95
2023-05-21T00:56:22.977Z,6.43
2023-05-21T00:58:54.177Z,6.88
2023-05-21T01:01:21.084Z,7.10
2023-05-21T01:03:48.854Z,7.10
2023-05-21T01:06:16.149Z,6.95
2023-05-21T01:08:44.168Z,6.47
2023-05-21T01:11:11.479Z,6.93
2023-05-21T01:13:41.392Z,6.88
2023-05-21T01:16:09.455Z,6.50
2023-05-21T01:18:37.784Z,6.82
2023-05-21T01:21:07.418Z,7.07
2023-05-21T01:23:34.473Z,6.55
2023-05-21T01:26:01.280Z,7.25
2023-05-21T01:28:29.844Z,6.90
2023-05-21T01:31:01.248Z,6.95
2023-05-21T01:33:47.466Z,7.15
2023-05-21T01:36:26.348Z,7.68
2023-05-21T01:39:15.614Z,7.40
2023-05-21T01:41:45.418Z,7.60
2023-05-21T01:44:14.000Z,7.95
2023-05-21T01:46:40.799Z,7.93
2023-05-21T01:49:10.062Z,7.55
2023-05-21T01:51:37.420Z,7.97
2023-05-21T01:54:04.181Z,8.10
2023-05-21T01:56:33.883Z,8.32
2023-05-21T01:59:00.825Z,8.68
2023-05-21T02:01:30.290Z,7.65
2023-05-21T02:03:58.215Z,8.00
2023-05-21T02:06:25.233Z,8.13
2023-05-21T02:08:52.155Z,8.57
2023-05-21T02:11:18.957Z,8.77
2023-05-21T02:13:46.180Z,9.60
2023-05-21T02:16:14.766Z,8.65
2023-05-21T02:18:44.485Z,9.38
2023-05-21T02:21:11.570Z,10.13
2023-05-21T02:23:38.576Z,9.68
2023-05-21T02:26:05.603Z,10.20
2023-05-21T02:28:32.834Z,9.63
2023-05-21T02:30:59.737Z,9.05
2023-05-21T02:33:26.689Z,9.75
2023-05-21T02:35:53.603Z,10.07
2023-05-21T02:38:23.112Z,10.65
2023-05-21T02:40:53.630Z,10.18
2023-05-21T02:43:20.780Z,10.25
2023-05-21T02:45:47.947Z,10.05
2023-05-21T02:48:15.094Z,10.57
2023-05-21T02:50:41.875Z,10.73
2023-05-21T02:53:08.653Z,11.07
2023-05-21T02:55:35.834Z,11.15
2023-05-21T02:58:02.883Z,11.23
2023-05-21T03:00:29.624Z,11.48
2023-05-21T03:02:56.765Z,11.02
2023-05-21T03:05:24.450Z,10.70
2023-05-21T03:07:51.495Z,12.30
2023-05-21T03:10:18.395Z,12.27
2023-05-21T03:12:45.660Z,12.07
2023-05-21T03:15:14.900Z,11.80
2023-05-21T03:17:44.819Z,12.50
2023-05-21T03:20:16.506Z,12.10
2023-05-21T03:22:44.838Z,12.32
2023-05-21T03:25:12.697Z,12.77
2023-05-21T03:27:40.037Z,13.85
2023-05-21T03:30:07.463Z,13.50
2023-05-21T03:32:37.812Z,12.32
2023-05-21T03:35:05.315Z,13.43
2023-05-21T03:37:32.130Z,14.10
2023-05-21T03:39:58.887Z,13.65
2023-05-21T03:42:25.767Z,14.43
2023-05-21T03:44:52.569Z,13.82
2023-05-21T03:47:19.348Z,13.13
2023-05-21T03:49:46.260Z,14.70
2023-05-21T03:52:13.071Z,13.45
2023-05-21T03:54:39.867Z,14.18
2023-05-21T03:57:06.814Z,14.48
2023-05-21T03:59:33.608Z,13.07
2023-05-21T04:02:00.480Z,13.20
2023-05-21T04:04:29.326Z,12.13
2023-05-21T04:06:56.239Z,12.02
2023-05-21T04:09:23.153Z,11.73
2023-05-21T04:11:49.935Z,11.82
2023-05-21T04:14:16.697Z,10.15
2023-05-21T04:16:44.250Z,10.50
2023-05-21T04:19:11.061Z,10.18
2023-05-21T04:21:37.855Z,9.80
2023-05-21T04:24:04.640Z,10.43
2023-05-21T04:26:34.020Z,9.93
2023-05-21T04:29:03.825Z,11.00
2023-05-21T04:31:33.484Z,10.57
2023-05-21T04:34:00.327Z,12.13
2023-05-21T04:36:29.119Z,12.13
2023-05-21T04:38:56.079Z,12.75
2023-05-21T04:41:22.918Z,12.55
2023-05-21T04:43:49.696Z,13.10
2023-05-21T04:46:16.698Z,12.98
2023-05-21T04:48:45.149Z,12.15
2023-05-21T04:51:11.968Z,11.95
2023-05-21T04:53:38.913Z,11.00
2023-05-21T04:56:07.331Z,11.55
2023-05-21T04:58:34.304Z,11.32
2023-05-21T05:01:03.345Z,11.15
2023-05-21T05:03:30.361Z,11.63
2023-05-21T05:05:57.405Z,11.18
2023-05-21T05:08:24.222Z,10.85
2023-05-21T05:10:50.986Z,11.27
2023-05-21T05:13:17.750Z,10.65
2023-05-21T05:15:44.489Z,10.35
2023-05-21T05:18:12.101Z,11.48
2023-05-21T05:20:38.970Z,11.57
2023-05-21T05:23:05.888Z,11.13
2023-05-21T05:25:33.072Z,10.57
2023-05-21T05:27:59.954Z,10.68
2023-05-21T05:30:26.863Z,10.80
2023-05-21T05:32:53.930Z,10.77
2023-05-21T05:35:20.804Z,11.30
2023-05-21T05:37:47.626Z,11.73
2023-05-21T05:40:14.650Z,10.90
2023-05-21T05:42:41.496Z,10.02
2023-05-21T05:45:08.813Z,9.75
2023-05-21T05:47:35.752Z,10.45
2023-05-21T05:50:02.625Z,10.18
2023-05-21T05:52:30.795Z,10.38
2023-05-21T05:54:57.572Z,9.73
2023-05-21T05:57:24.301Z,9.45
2023-05-21T05:59:51.043Z,8.98
2023-05-21T06:02:17.956Z,9.52
2023-05-21T06:04:44.840Z,9.52
2023-05-21T06:07:11.630Z,9.30
2023-05-21T06:09:39.000Z,8.48
2023-05-21T06:12:07.146Z,8.07
2023-05-21T06:14:33.951Z,9.25
2023-05-21T06:17:00.740Z,8.38
2023-05-21T06:19:27.613Z,8.45
2023-05-21T06:21:54.429Z,9.38
2023-05-21T06:24:21.310Z,9.23
2023-05-21T06:26:48.049Z,8.75
2023-05-21T06:29:15.589Z,7.45
2023-05-21T06:31:42.750Z,6.88
2023-05-21T06:34:10.735Z,7.72
2023-05-21T06:36:37.878Z,7.32
2023-05-21T06:39:04.647Z,7.60
2023-05-21T06:41:31.491Z,7.88
2023-05-21T06:43:58.260Z,7.53
2023-05-21T06:46:25.216Z,7.75
2023-05-21T06:48:52.115Z,7.90
2023-05-21T06:51:18.904Z,7.32
2023-05-21T06:53:45.717Z,7.13
2023-05-21T06:56:13.111Z,7.32
2023-05-21T06:58:42.012Z,7.30
2023-05-21T07:01:08.862Z,8.60
2023-05-21T07:03:38.659Z,7.80
2023-05-21T07:06:05.571Z,6.65
2023-05-21T07:08:32.351Z,6.97
2023-05-21T07:10:59.230Z,7.40
2023-05-21T07:13:26.101Z,6.40
2023-05-21T07:15:52.849Z,6.30
2023-05-21T07:18:19.718Z,7.18
2023-05-21T07:20:46.461Z,6.70
2023-05-21T07:23:13.218Z,6.40
2023-05-21T07:25:40.039Z,6.68
2023-05-21T07:28:06.943Z,6.43
2023-05-21T07:30:33.900Z,6.43
2023-05-21T07:33:00.972Z,7.68
2023-05-21T07:35:27.750Z,8.27
2023-05-21T07:37:54.691Z,8.18
2023-05-21T07:40:21.606Z,8.60
2023-05-21T07:42:48.360Z,9.45
2023-05-21T07:45:15.276Z,8.32
2023-05-21T07:47:42.807Z,7.68
2023-05-21T07:50:10.401Z,8.48
2023-05-21T07:52:37.240Z,7.72
2023-05-21T07:55:04.441Z,7.40
2023-05-21T07:57:31.361Z,7.10
2023-05-21T07:59:58.560Z,6.30
2023-05-21T08:02:25.686Z,5.75
2023-05-21T08:04:52.689Z,5.65
2023-05-21T08:07:21.535Z,5.78
2023-05-21T08:09:48.378Z,5.30
2023-05-21T08:12:16.119Z,5.25
2023-05-21T08:14:43.074Z,5.72
2023-05-21T08:17:11.399Z,4.47
2023-05-21T08:19:38.519Z,5.13
2023-05-21T08:22:06.700Z,4.22
2023-05-21T08:24:33.656Z,4.18
2023-05-21T08:27:00.547Z,4.00
2023-05-21T08:29:27.435Z,3.75
2023-05-21T08:31:54.425Z,4.25
2023-05-21T08:34:21.345Z,3.72
2023-05-21T08:36:49.956Z,3.70
2023-05-21T08:39:16.822Z,3.63
2023-05-21T08:41:49.621Z,3.63
2023-05-21T08:44:20.533Z,3.67
2023-05-21T08:46:50.141Z,3.60
2023-05-21T08:49:18.793Z,3.58
2023-05-21T08:51:47.031Z,3.85
2023-05-21T08:54:14.209Z,3.50
2023-05-21T08:56:47.099Z,3.67
2023-05-21T08:59:15.364Z,3.58
2023-05-21T09:01:43.623Z,3.70
2023-05-21T09:06:46.960Z,3.50
2023-05-21T09:09:42.196Z,3.30
2023-05-21T09:12:09.056Z,3.60
2023-05-21T09:14:37.405Z,3.80
2023-05-21T09:17:04.394Z,3.60
2023-05-21T09:19:32.319Z,3.80
2023-05-21T09:22:05.990Z,3.90
2023-05-21T09:24:35.708Z,3.75
2023-05-21T09:27:06.469Z,3.70
2023-05-21T09:29:34.573Z,3.58
2023-05-21T09:32:07.026Z,3.50
2023-05-21T09:34:37.253Z,3.17
2023-05-21T09:37:06.555Z,3.15
2023-05-21T09:39:36.074Z,3.30
2023-05-21T09:42:03.011Z,3.03
2023-05-21T09:44:29.798Z,2.80
2023-05-21T09:46:59.689Z,2.80
2023-05-21T09:49:26.798Z,3.35
2023-05-21T09:51:59.552Z,2.50
2023-05-21T09:54:32.270Z,3.03
2023-05-21T09:57:01.748Z,2.90
2023-05-21T09:59:39.330Z,3.28
2023-05-21T10:02:23.562Z,3.70
2023-05-21T10:04:52.984Z,3.05
2023-05-21T10:07:25.972Z,3.78
2023-05-21T10:09:58.316Z,3.83
2023-05-21T10:12:26.091Z,4.32
2023-05-21T10:15:01.364Z,4.40
2023-05-21T10:17:31.198Z,4.60
2023-05-21T10:19:59.811Z,4.80
2023-05-21T10:22:27.525Z,4.65
2023-05-21T10:24:54.801Z,4.85
2023-05-21T10:27:23.047Z,4.57
2023-05-21T10:29:50.826Z,5.00
2023-05-21T10:32:18.020Z,4.50
2023-05-21T10:34:46.992Z,4.32
2023-05-21T10:37:14.345Z,4.20
2023-05-21T10:39:43.442Z,4.55
2023-05-21T10:42:20.274Z,4.40
2023-05-21T10:45:00.600Z,4.70
2023-05-21T10:48:12.753Z,5.13
2023-05-21T10:51:05.535Z,4.95
2023-05-21T10:53:51.253Z,4.75
2023-05-21T10:56:24.918Z,4.95
2023-05-21T10:59:22.340Z,4.50
2023-05-21T11:01:53.050Z,4.50
2023-05-21T11:04:26.422Z,4.22
2023-05-21T11:06:53.357Z,4.28
2023-05-21T11:09:20.474Z,5.13
2023-05-21T11:11:51.864Z,4.57
2023-05-21T11:14:42.985Z,4.70
2023-05-21T11:17:09.769Z,5.00
2023-05-21T11:19:41.593Z,4.10
2023-05-21T11:24:41.403Z,3.58
2023-05-21T11:27:08.767Z,3.60
2023-05-21T11:29:44.514Z,3.20
2023-05-21T11:32:13.575Z,2.65
2023-05-21T11:34:47.953Z,2.60
2023-05-21T11:37:18.233Z,2.55
2023-05-21T11:39:45.859Z,2.85
2023-05-21T11:42:13.207Z,3.00
2023-05-21T11:44:48.086Z,2.92
2023-05-21T11:47:17.877Z,2.78
2023-05-21T11:49:46.014Z,2.70
2023-05-21T11:52:14.449Z,2.75
2023-05-21T11:54:46.544Z,3.50
2023-05-21T11:57:17.810Z,3.38
2023-05-21T11:59:54.258Z,3.58
2023-05-21T12:02:22.466Z,3.60
2023-05-21T12:04:50.976Z,3.97
2023-05-21T12:07:19.365Z,3.55
2023-05-21T12:09:48.292Z,3.75
2023-05-21T12:12:17.021Z,3.88
2023-05-21T12:14:46.314Z,3.92
2023-05-21T12:17:15.285Z,3.70
2023-05-21T12:19:42.891Z,3.97
2023-05-21T12:22:10.674Z,3.88
2023-05-21T12:24:38.147Z,4.13
2023-05-21T12:27:10.763Z,3.67
2023-05-21T12:29:38.822Z,3.58
2023-05-21T12:32:08.838Z,3.67
2023-05-21T12:34:54.697Z,3.60
2023-05-21T12:37:22.759Z,3.60
2023-05-21T12:39:51.663Z,3.22
2023-05-21T12:42:35.378Z,3.33
2023-05-21T12:45:08.717Z,3.30
2023-05-21T12:47:35.928Z,3.28
2023-05-21T12:50:11.866Z,3.92
2023-05-21T12:52:40.518Z,3.70
2023-05-21T12:55:09.564Z,4.07
2023-05-21T12:57:38.973Z,4.22
2023-05-21T13:00:07.344Z,3.90
2023-05-21T13:02:36.266Z,3.78
2023-05-21T13:05:07.809Z,3.80
2023-05-21T13:07:39.439Z,3.70
2023-05-21T13:10:07.056Z,3.85
2023-05-21T13:12:34.524Z,4.25
2023-05-21T13:15:04.456Z,3.90
2023-05-21T13:17:34.606Z,3.92
2023-05-21T13:20:12.517Z,3.95
2023-05-21T13:22:45.176Z,3.20
2023-05-21T13:25:15.592Z,3.95
2023-05-21T13:27:43.601Z,3.85
2023-05-21T13:30:14.338Z,4.18
2023-05-21T13:32:42.419Z,3.80
2023-05-21T13:35:13.131Z,4.70
2023-05-21T13:37:40.935Z,5.13
2023-05-21T13:40:11.308Z,4.90
2023-05-21T13:42:38.912Z,4.88
2023-05-21T13:45:07.424Z,4.75
2023-05-21T13:47:37.485Z,4.70
2023-05-21T13:50:06.742Z,4.65
2023-05-21T13:52:33.622Z,4.95
2023-05-21T13:55:00.419Z,4.60
2023-05-21T13:57:30.667Z,4.68
2023-05-21T13:59:58.420Z,4.68
2023-05-21T14:02:25.703Z,4.00
2023-05-21T14:04:52.709Z,4.00
2023-05-21T14:07:19.488Z,3.95
2023-05-21T14:09:47.497Z,4.07
2023-05-21T14:12:14.383Z,4.18
2023-05-21T14:14:42.136Z,3.70
2023-05-21T14:17:09.051Z,3.63
2023-05-21T14:19:36.116Z,3.85
2023-05-21T14:22:02.998Z,4.40
2023-05-21T14:24:29.799Z,3.83
2023-05-21T14:26:56.566Z,4.15
2023-05-21T14:29:23.388Z,4.32
2023-05-21T14:31:50.224Z,4.22
2023-05-21T14:34:17.093Z,3.83
2023-05-21T14:36:43.933Z,4.47
2023-05-21T14:39:10.849Z,3.35
2023-05-21T14:41:39.764Z,3.70
2023-05-21T14:44:06.843Z,3.38
2023-05-21T14:46:33.935Z,3.13
2023-05-21T14:49:01.066Z,3.20
2023-05-21T14:51:28.175Z,2.85
2023-05-21T14:53:57.300Z,2.75
2023-05-21T14:56:27.258Z,3.05
2023-05-21T14:58:54.337Z,2.75
2023-05-21T15:01:21.544Z,2.72
2023-05-21T15:03:48.540Z,2.70
2023-05-21T15:06:15.402Z,3.03
2023-05-21T15:08:42.421Z,3.20
2023-05-21T15:11:10.044Z,3.10
2023-05-21T15:13:36.970Z,2.60
2023-05-21T15:16:04.137Z,2.70
2023-05-21T15:18:31.067Z,3.15
2023-05-21T15:20:58.375Z,2.90
2023-05-21T15:23:25.564Z,2.70
2023-05-21T15:25:52.378Z,2.67
2023-05-21T15:28:19.895Z,2.90
2023-05-21T15:30:46.745Z,2.90
2023-05-21T15:33:13.542Z,3.00
2023-05-21T15:35:41.098Z,3.30
2023-05-21T15:38:08.302Z,3.03
2023-05-21T15:40:35.086Z,3.00
2023-05-21T15:43:01.955Z,3.10
2023-05-21T15:45:28.851Z,2.92
2023-05-21T15:47:55.908Z,2.97
2023-05-21T15:50:22.701Z,2.95
2023-05-21T15:52:51.038Z,2.90
2023-05-21T15:55:20.105Z,3.30
2023-05-21T15:57:47.001Z,3.10
2023-05-21T16:00:15.245Z,2.63
2023-05-21T16:02:42.172Z,3.50
2023-05-21T16:05:09.576Z,3.20
2023-05-21T16:07:38.163Z,2.67
2023-05-21T16:10:06.447Z,3.22
2023-05-21T16:12:33.260Z,2.63
2023-05-21T16:15:00.079Z,2.92
2023-05-21T16:17:26.914Z,2.97
2023-05-21T16:19:53.746Z,2.80
2023-05-21T16:22:20.837Z,2.60
2023-05-21T16:24:48.042Z,2.60
2023-05-21T16:27:14.849Z,2.85
2023-05-21T16:29:41.905Z,2.80
2023-05-21T16:32:09.800Z,2.58
2023-05-21T16:34:36.727Z,2.47
2023-05-21T16:37:03.683Z,2.60
2023-05-21T16:39:30.607Z,2.63
2023-05-21T16:41:59.679Z,2.75
2023-05-21T16:44:27.350Z,2.50
2023-05-21T16:46:54.398Z,2.47
2023-05-21T16:49:21.230Z,2.50
2023-05-21T16:51:48.115Z,2.60
2023-05-21T16:54:14.956Z,2.65
2023-05-21T16:56:41.842Z,2.70
2023-05-21T16:59:08.675Z,2.83
2023-05-21T17:01:35.557Z,3.58
2023-05-21T17:04:02.785Z,3.10
2023-05-21T17:06:29.683Z,3.35
2023-05-21T17:08:56.629Z,3.20
2023-05-21T17:11:23.433Z,2.90
2023-05-21T17:13:50.293Z,3.40
2023-05-21T17:16:19.799Z,3.30
2023-05-21T17:18:46.692Z,3.58
2023-05-21T17:21:13.796Z,3.03
2023-05-21T17:23:42.861Z,3.72
2023-05-21T17:26:12.694Z,3.78
2023-05-21T17:28:39.503Z,3.20
2023-05-21T17:31:08.271Z,3.67
2023-05-21T17:33:35.120Z,7.60
2023-05-21T17:36:03.153Z,4.93
2023-05-21T17:38:30.040Z,5.55
2023-05-21T17:40:59.055Z,5.22
2023-05-21T17:43:27.646Z,4.68
2023-05-21T17:45:54.652Z,5.15
2023-05-21T17:48:21.572Z,4.63
2023-05-21T17:50:48.513Z,5.35
2023-05-21T17:53:15.959Z,4.72
2023-05-21T17:55:42.722Z,4.68
2023-05-21T17:58:10.131Z,4.78
2023-05-21T18:00:37.120Z,4.90
2023-05-21T18:03:04.658Z,4.32
2023-05-21T18:05:31.568Z,4.75
2023-05-21T18:08:01.240Z,4.50
2023-05-21T18:10:28.292Z,4.43
2023-05-21T18:12:55.054Z,4.30
2023-05-21T18:15:21.907Z,4.30
2023-05-21T18:17:48.794Z,4.20
2023-05-21T18:20:15.829Z,5.13
2023-05-21T18:22:42.664Z,4.90
2023-05-21T18:25:09.787Z,4.43
2023-05-21T18:27:36.934Z,4.40
2023-05-21T18:30:06.383Z,6.35
2023-05-21T18:32:34.558Z,4.85
2023-05-21T18:35:01.397Z,4.90
2023-05-21T18:37:29.275Z,4.95
2023-05-21T18:39:56.085Z,5.20
2023-05-21T18:42:22.868Z,5.28
2023-05-21T18:44:52.670Z,5.35
2023-05-21T18:47:19.577Z,5.57
2023-05-21T18:49:46.396Z,5.78
2023-05-21T18:52:13.748Z,6.32
2023-05-21T18:54:40.623Z,6.55
2023-05-21T18:57:07.385Z,7.05
2023-05-21T18:59:34.154Z,6.90
2023-05-21T19:02:01.154Z,7.97
2023-05-21T19:04:28.708Z,7.63
2023-05-21T19:06:55.972Z,8.10
2023-05-21T19:09:22.780Z,7.63
2023-05-21T19:11:50.705Z,8.00
2023-05-21T19:14:17.559Z,8.98
2023-05-21T19:16:45.855Z,8.23
2023-05-21T19:19:12.804Z,7.18
2023-05-21T19:21:40.090Z,8.38
2023-05-21T19:24:07.325Z,6.70
2023-05-21T19:26:37.339Z,6.70
2023-05-21T19:29:04.175Z,6.57
2023-05-21T19:31:31.014Z,6.53
2023-05-21T19:33:57.837Z,6.60
2023-05-21T19:36:24.755Z,6.93
2023-05-21T19:38:51.689Z,7.72
2023-05-21T19:41:19.974Z,6.88
2023-05-21T19:43:46.813Z,6.03
2023-05-21T19:46:17.221Z,7.22
2023-05-21T19:48:46.154Z,6.68
2023-05-21T19:51:13.482Z,7.13
2023-05-21T19:53:40.346Z,7.55
2023-05-21T19:56:07.639Z,7.60
2023-05-21T19:58:34.418Z,7.63
2023-05-21T20:01:01.226Z,8.00
2023-05-21T20:03:32.105Z,7.38
2023-05-21T20:05:59.117Z,7.85
2023-05-21T20:08:26.045Z,7.65
2023-05-21T20:10:53.092Z,7.75
2023-05-21T20:13:21.694Z,6.88
2023-05-21T20:15:49.899Z,7.53
2023-05-21T20:18:17.191Z,7.82
2023-05-21T20:20:44.087Z,7.32
2023-05-21T20:23:10.973Z,7.28
2023-05-21T20:25:37.776Z,7.55
2023-05-21T20:28:05.477Z,7.45
2023-05-21T20:30:34.025Z,7.30
2023-05-21T20:33:02.216Z,7.38
2023-05-21T20:35:29.528Z,7.07
2023-05-21T20:37:56.323Z,6.97
2023-05-21T20:40:23.119Z,7.07
2023-05-21T20:42:53.579Z,7.32
2023-05-21T20:45:21.991Z,7.35
2023-05-21T20:47:50.107Z,7.43
2023-05-21T20:50:25.882Z,7.10
2023-05-21T20:52:52.699Z,6.97
2023-05-21T20:55:20.872Z,6.68
2023-05-21T20:57:47.667Z,7.18
2023-05-21T21:00:16.209Z,7.05
2023-05-21T21:02:43.768Z,5.95
2023-05-21T21:05:11.463Z,6.43
2023-05-21T21:07:38.481Z,6.05
2023-05-21T21:10:05.971Z,6.63
2023-05-21T21:12:32.804Z,6.13
2023-05-21T21:14:59.598Z,6.10
2023-05-21T21:17:26.400Z,6.35
2023-05-21T21:19:53.588Z,5.68
2023-05-21T21:22:21.061Z,5.75
2023-05-21T21:24:48.006Z,5.95
2023-05-21T21:27:17.588Z,5.95
2023-05-21T21:29:45.747Z,5.97
2023-05-21T21:32:12.759Z,5.65
2023-05-21T21:34:39.580Z,5.90
2023-05-21T21:37:06.464Z,5.35
2023-05-21T21:39:33.728Z,5.70
2023-05-21T21:42:00.847Z,5.10
2023-05-21T21:44:27.835Z,5.20
2023-05-21T21:46:54.604Z,5.40
2023-05-21T21:49:21.434Z,5.40
2023-05-21T21:51:48.470Z,5.28
2023-05-21T21:54:15.253Z,5.32
2023-05-21T21:56:42.124Z,5.28
2023-05-21T21:59:08.925Z,4.97
2023-05-21T22:01:36.060Z,5.20
2023-05-21T22:04:02.980Z,4.85
2023-05-21T22:06:29.992Z,5.60
2023-05-21T22:08:56.811Z,4.80
2023-05-21T22:11:23.698Z,5.22
2023-05-21T22:13:50.507Z,5.32
2023-05-21T22:16:17.310Z,5.68
2023-05-21T22:18:44.218Z,5.45
2023-05-21T22:21:14.299Z,5.70
2023-05-21T22:23:41.543Z,6.38
2023-05-21T22:26:09.666Z,5.90
2023-05-21T22:28:36.496Z,5.50
2023-05-21T22:31:03.490Z,5.22
2023-05-21T22:33:30.540Z,5.43
2023-05-21T22:35:58.263Z,5.30
2023-05-21T22:38:25.699Z,5.03
2023-05-21T22:40:52.536Z,5.07
2023-05-21T22:43:19.429Z,5.40
2023-05-21T22:45:46.447Z,5.35
2023-05-21T22:48:14.413Z,5.57
2023-05-21T22:50:41.572Z,5.40
2023-05-21T22:53:08.488Z,5.78
2023-05-21T22:55:35.375Z,5.93
2023-05-21T22:58:02.188Z,5.10
2023-05-21T23:00:29.224Z,5.18
2023-05-21T23:02:56.322Z,5.53
2023-05-21T23:05:23.326Z,5.40
2023-05-21T23:07:50.143Z,5.60
2023-05-21T23:10:17.028Z,5.80
2023-05-21T23:12:43.848Z,5.53
2023-05-21T23:15:11.079Z,5.82
2023-05-21T23:17:38.315Z,5.70
2023-05-21T23:20:07.262Z,6.05
2023-05-21T23:22:34.606Z,5.57
2023-05-21T23:25:01.808Z,5.63
2023-05-21T23:27:30.557Z,5.22
2023-05-21T23:29:57.288Z,6.15
2023-05-21T23:32:24.425Z,5.72
2023-05-21T23:34:51.260Z,5.45
2023-05-21T23:37:18.871Z,5.32
2023-05-21T23:39:49.581Z,6.05
2023-05-21T23:42:17.424Z,5.53
2023-05-21T23:44:44.529Z,6.10
2023-05-21T23:47:11.403Z,5.72
2023-05-21T23:49:38.993Z,5.03
2023-05-21T23:52:06.267Z,5.93
2023-05-21T23:54:33.209Z,5.78
2023-05-21T23:57:00.079Z,5.47
2023-05-21T23:59:26.869Z,5.55
